Time;durP1;ratioP1;P1;durP2;ratioP2;P2;SDS_P1;SDS_P2;PMS_P1;PMS_P2;Temp;Humidity;BMP_temperature;BMP_pressure;BME280_temperature;BME280_humidity;BME280_pressure;Samples;Min_cycle;Max_cycle;Signal;HPM_P1;HPM_P2
2023/10/31 00:00:25;;;;;;;0.32;0.30;;;;;;;12.62;83.70;95587.66;5005370;28;20073;-74
2023/10/31 00:02:54;;;;;;;0.30;0.30;;;;;;;12.66;83.38;95594.13;5010265;28;20065;-74
2023/10/31 00:05:22;;;;;;;0.63;0.63;;;;;;;12.57;84.29;95598.31;5007464;28;20456;-74
2023/10/31 00:07:50;;;;;;;0.45;0.45;;;;;;;12.56;84.37;95590.56;5010434;28;20046;-74
2023/10/31 00:10:18;;;;;;;0.40;0.40;;;;;;;12.57;84.58;95592.97;5010234;28;20528;-74
2023/10/31 00:12:45;;;;;;;0.30;0.30;;;;;;;12.55;84.74;95596.97;5012022;28;20048;-74
2023/10/31 00:15:13;;;;;;;0.30;0.30;;;;;;;12.51;85.46;95594.00;5013619;28;20053;-74
2023/10/31 00:17:41;;;;;;;0.30;0.30;;;;;;;12.49;85.07;95599.59;5014914;28;20046;-74
2023/10/31 00:20:12;;;;;;;0.30;0.30;;;;;;;12.45;85.24;95592.38;5009825;28;20038;-74
2023/10/31 00:22:40;;;;;;;0.20;0.20;;;;;;;12.44;85.14;95596.09;5010527;28;20093;-74
2023/10/31 00:25:08;;;;;;;0.30;0.30;;;;;;;12.46;85.21;95588.59;5005956;28;20402;-74
2023/10/31 00:27:35;;;;;;;0.30;0.30;;;;;;;12.40;85.62;95595.78;4987927;28;20050;-74
2023/10/31 00:30:04;;;;;;;0.30;0.30;;;;;;;12.36;85.75;95589.31;4993205;28;20132;-74
2023/10/31 00:32:32;;;;;;;0.30;0.30;;;;;;;12.36;85.69;95588.50;5010450;28;20041;-74
2023/10/31 00:35:00;;;;;;;0.30;0.30;;;;;;;12.32;86.04;95590.91;4994559;28;20056;-74
2023/10/31 00:37:29;;;;;;;0.35;0.35;;;;;;;12.29;85.92;95583.38;5011724;28;20457;-73
2023/10/31 00:39:57;;;;;;;0.32;0.32;;;;;;;12.29;86.30;95588.75;5005364;28;20464;-73
2023/10/31 00:42:24;;;;;;;0.40;0.40;;;;;;;12.28;86.38;95591.66;5004156;28;20088;-74
2023/10/31 00:44:52;;;;;;;0.20;0.20;;;;;;;12.26;86.87;95591.09;4999298;28;20486;-73
2023/10/31 00:47:20;;;;;;;0.38;0.35;;;;;;;12.23;86.78;95591.63;4996536;28;20104;-74
2023/10/31 00:49:49;;;;;;;0.20;0.20;;;;;;;12.22;86.76;95585.47;4994872;28;20045;-74
2023/10/31 00:52:17;;;;;;;0.30;0.30;;;;;;;12.24;87.05;95579.88;5011707;28;20056;-75
2023/10/31 00:54:46;;;;;;;0.22;0.22;;;;;;;12.24;86.81;95585.22;5015358;28;20038;-74
2023/10/31 00:57:15;;;;;;;0.25;0.20;;;;;;;12.24;86.88;95590.59;4992852;28;20577;-74
2023/10/31 00:59:44;;;;;;;0.30;0.30;;;;;;;12.17;87.55;95603.34;4997826;28;20082;-74
2023/10/31 01:02:11;;;;;;;0.15;0.15;;;;;;;12.18;87.84;95599.59;5010911;28;20112;-75
2023/10/31 01:04:39;;;;;;;0.30;0.30;;;;;;;12.17;87.27;95597.97;5008646;28;20389;-74
2023/10/31 01:07:09;;;;;;;0.32;0.32;;;;;;;12.18;88.00;95607.63;5010246;28;20046;-74
2023/10/31 01:09:37;;;;;;;0.20;0.20;;;;;;;12.16;87.70;95601.72;5010670;28;20038;-73
2023/10/31 01:12:07;;;;;;;0.30;0.30;;;;;;;12.13;87.53;95608.41;5011586;28;20041;-74
2023/10/31 01:14:35;;;;;;;0.35;0.35;;;;;;;12.11;87.31;95611.31;5011710;28;20055;-74
2023/10/31 01:17:02;;;;;;;0.20;0.20;;;;;;;12.11;87.91;95615.88;4996490;28;20070;-73
2023/10/31 01:19:30;;;;;;;0.32;0.30;;;;;;;12.12;87.62;95610.25;4994955;28;20038;-74
2023/10/31 01:21:58;;;;;;;0.30;0.30;;;;;;;12.11;87.82;95622.03;5011425;28;20121;-73
2023/10/31 01:24:26;;;;;;;0.20;0.20;;;;;;;12.15;87.59;95616.19;5016243;28;20124;-74
2023/10/31 01:26:54;;;;;;;0.15;0.15;;;;;;;12.14;87.44;95615.38;5012057;28;20060;-74
2023/10/31 01:29:23;;;;;;;0.30;0.30;;;;;;;12.13;87.11;95606.53;5016985;28;20099;-74
2023/10/31 01:31:50;;;;;;;0.20;0.20;;;;;;;12.13;87.35;95613.75;5011956;28;20540;-74
2023/10/31 01:34:28;;;;;;;0.25;0.25;;;;;;;12.13;87.32;95619.09;4990983;28;20046;-74
2023/10/31 01:36:56;;;;;;;0.20;0.20;;;;;;;12.06;87.90;95621.16;5012402;28;20091;-74
2023/10/31 01:39:24;;;;;;;0.20;0.20;;;;;;;12.09;87.83;95621.47;5010396;28;20064;-73
2023/10/31 01:41:54;;;;;;;0.50;0.50;;;;;;;12.11;87.57;95616.66;5009593;28;20085;-74
2023/10/31 01:44:23;;;;;;;0.20;0.20;;;;;;;12.16;87.52;95617.75;4992456;28;20112;-74
2023/10/31 01:46:51;;;;;;;0.20;0.20;;;;;;;12.15;87.46;95616.19;5009792;28;20038;-74
2023/10/31 01:49:21;;;;;;;0.22;0.22;;;;;;;12.16;87.54;95621.25;5010144;28;20396;-74
2023/10/31 01:51:49;;;;;;;0.20;0.20;;;;;;;12.16;87.43;95615.91;5013937;28;20049;-74
2023/10/31 01:54:18;;;;;;;0.10;0.10;;;;;;;12.13;87.60;95606.53;5010566;28;20406;-73
2023/10/31 01:56:48;;;;;;;0.22;0.22;;;;;;;12.10;87.84;95615.06;4998459;28;20080;-73
2023/10/31 01:59:16;;;;;;;0.20;0.20;;;;;;;12.10;88.12;95607.03;4993801;28;20107;-73
2023/10/31 02:01:46;;;;;;;0.10;0.10;;;;;;;12.06;88.42;95615.81;4999555;28;20140;-74
2023/10/31 02:04:13;;;;;;;0.10;0.10;;;;;;;12.04;88.58;95615.28;4999056;28;20050;-75
2023/10/31 02:06:40;;;;;;;0.20;0.20;;;;;;;12.03;88.98;95611.78;4997913;28;20104;-75
2023/10/31 02:09:08;;;;;;;0.20;0.20;;;;;;;12.03;89.06;95619.81;4994655;28;20131;-74
2023/10/31 02:11:36;;;;;;;0.20;0.20;;;;;;;12.01;88.96;95605.06;4993056;28;20559;-74
2023/10/31 02:14:04;;;;;;;0.20;0.20;;;;;;;12.02;88.87;95612.03;4993013;28;20057;-74
2023/10/31 02:16:31;;;;;;;0.57;0.57;;;;;;;11.99;89.05;95612.53;4993124;28;20450;-73
2023/10/31 02:19:01;;;;;;;0.20;0.20;;;;;;;12.01;89.05;95611.22;5011484;28;20058;-73
2023/10/31 02:21:28;;;;;;;0.20;0.20;;;;;;;12.00;88.73;95614.97;4991205;28;20034;-73
2023/10/31 02:23:58;;;;;;;0.25;0.25;;;;;;;12.02;88.73;95617.38;4991751;28;20478;-73
2023/10/31 02:26:29;;;;;;;0.10;0.10;;;;;;;12.03;88.28;95617.13;5008591;28;20108;-73
2023/10/31 02:28:57;;;;;;;0.13;0.13;;;;;;;12.04;87.72;95608.03;5002907;28;20440;-73
2023/10/31 02:31:25;;;;;;;0.30;0.30;;;;;;;12.07;87.37;95622.75;4992382;28;20046;-73
2023/10/31 02:33:53;;;;;;;0.20;0.20;;;;;;;12.00;87.86;95612.28;4996907;28;20096;-74
2023/10/31 02:36:21;;;;;;;0.22;0.22;;;;;;;11.93;88.54;95625.06;5010030;28;20125;-74
2023/10/31 02:38:49;;;;;;;0.20;0.20;;;;;;;11.91;89.46;95610.31;5010781;28;20038;-74
2023/10/31 02:41:18;;;;;;;0.20;0.20;;;;;;;11.83;89.87;95608.91;5015558;28;20045;-75
2023/10/31 02:43:46;;;;;;;0.20;0.20;;;;;;;11.79;90.59;95615.00;5014311;28;20068;-74
2023/10/31 02:46:15;;;;;;;0.20;0.20;;;;;;;11.69;91.47;95629.03;5014248;28;20038;-73
2023/10/31 02:48:43;;;;;;;0.20;0.20;;;;;;;11.62;92.22;95626.56;5010912;28;20042;-74
2023/10/31 02:51:11;;;;;;;0.17;0.17;;;;;;;11.59;92.34;95623.56;4998386;28;20048;-73
2023/10/31 02:53:38;;;;;;;0.20;0.20;;;;;;;11.57;92.27;95634.50;5013854;28;20042;-74
2023/10/31 02:56:07;;;;;;;0.20;0.20;;;;;;;11.54;93.00;95626.16;5012146;28;20042;-74
2023/10/31 02:58:36;;;;;;;0.30;0.30;;;;;;;11.57;92.83;95626.47;5010746;28;20061;-74
2023/10/31 03:01:04;;;;;;;0.25;0.25;;;;;;;11.59;91.97;95627.03;5011689;28;20088;-74
2023/10/31 03:03:32;;;;;;;0.20;0.20;;;;;;;11.61;92.37;95634.81;5012787;28;20052;-73
2023/10/31 03:06:00;;;;;;;0.22;0.22;;;;;;;11.65;92.18;95635.91;5010471;28;20049;-74
2023/10/31 03:08:28;;;;;;;0.20;0.20;;;;;;;11.63;92.07;95641.50;5015501;28;20052;-74
2023/10/31 03:10:56;;;;;;;0.30;0.30;;;;;;;11.65;92.14;95631.38;5010812;28;20042;-74
2023/10/31 03:13:23;;;;;;;0.30;0.30;;;;;;;11.66;91.45;95629.50;5012023;28;20049;-74
2023/10/31 03:15:52;;;;;;;0.30;0.30;;;;;;;11.69;90.19;95637.03;5000266;28;20057;-74
2023/10/31 03:18:20;;;;;;;0.20;0.20;;;;;;;11.71;90.50;95637.59;5011020;28;20153;-74
2023/10/31 03:20:48;;;;;;;0.20;0.20;;;;;;;11.73;89.79;95640.84;4992500;28;20050;-75
2023/10/31 03:23:16;;;;;;;0.75;0.75;;;;;;;11.72;89.50;95632.00;5010597;28;20424;-75
2023/10/31 03:25:43;;;;;;;0.22;0.22;;;;;;;11.73;89.47;95635.50;4992202;28;20046;-75
2023/10/31 03:28:19;;;;;;;0.13;0.13;;;;;;;11.72;89.05;95632.00;4996382;28;20077;-75
2023/10/31 03:30:48;;;;;;;0.22;0.22;;;;;;;11.73;88.11;95644.28;4993638;28;20057;-77
2023/10/31 03:33:17;;;;;;;0.70;0.20;;;;;;;11.74;87.97;95639.75;5012621;28;20404;-75
2023/10/31 03:35:45;;;;;;;0.20;0.20;;;;;;;11.72;88.30;95642.69;4993331;28;20404;-75
2023/10/31 03:38:14;;;;;;;0.20;0.20;;;;;;;11.71;87.60;95640.28;5009216;28;20121;-76
2023/10/31 03:40:42;;;;;;;0.28;0.28;;;;;;;11.70;88.05;95642.13;5010482;28;20037;-74
2023/10/31 03:43:12;;;;;;;0.20;0.20;;;;;;;11.71;88.03;95649.09;4994721;28;20105;-75
2023/10/31 03:45:41;;;;;;;0.40;0.40;;;;;;;11.72;87.85;95637.34;4997325;28;20254;-74
2023/10/31 03:48:08;;;;;;;0.20;0.20;;;;;;;11.69;87.67;95645.06;4995860;28;20132;-74
2023/10/31 03:50:38;;;;;;;0.20;0.20;;;;;;;11.67;87.27;95647.97;4995108;28;20045;-73
2023/10/31 03:53:06;;;;;;;0.22;0.22;;;;;;;11.69;87.26;95655.75;4999662;28;20053;-73
2023/10/31 03:55:34;;;;;;;0.20;0.20;;;;;;;11.66;86.60;95661.59;5012280;28;20056;-72
2023/10/31 03:58:02;;;;;;;0.10;0.10;;;;;;;11.64;85.22;95675.19;5016878;28;20045;-73
2023/10/31 04:00:30;;;;;;;0.20;0.20;;;;;;;11.66;84.80;95674.94;5009453;28;20044;-73
2023/10/31 04:02:58;;;;;;;0.20;0.20;;;;;;;11.63;84.28;95678.91;4990929;28;20103;-74
2023/10/31 04:05:26;;;;;;;0.20;0.20;;;;;;;11.61;83.33;95672.22;5012405;28;20128;-75
2023/10/31 04:07:55;;;;;;;0.50;0.50;;;;;;;11.58;83.03;95676.19;5009567;28;20149;-73
2023/10/31 04:10:25;;;;;;;0.20;0.20;;;;;;;11.52;83.74;95669.19;4991307;28;20043;-72
2023/10/31 04:12:52;;;;;;;0.32;0.20;;;;;;;11.48;84.04;95675.25;5007397;28;20073;-74
2023/10/31 04:15:20;;;;;;;0.20;0.20;;;;;;;11.46;84.09;95670.16;5006998;28;20045;-74
2023/10/31 04:17:48;;;;;;;0.28;0.28;;;;;;;11.44;84.37;95676.78;5007751;28;20102;-74
2023/10/31 04:20:15;;;;;;;0.20;0.20;;;;;;;11.43;84.33;95685.84;5007801;28;20050;-74
2023/10/31 04:22:43;;;;;;;0.20;0.20;;;;;;;11.43;84.70;95694.69;5008576;28;20081;-74
2023/10/31 04:25:12;;;;;;;0.25;0.25;;;;;;;11.43;84.73;95696.53;5009147;28;20060;-74
2023/10/31 04:27:40;;;;;;;0.20;0.20;;;;;;;11.40;85.00;95701.34;5008587;28;20533;-74
2023/10/31 04:30:08;;;;;;;0.20;0.20;;;;;;;11.44;84.95;95706.19;5008286;28;20129;-73
2023/10/31 04:32:40;;;;;;;0.20;0.20;;;;;;;11.47;84.58;95708.38;5009696;28;20470;-73
2023/10/31 04:35:08;;;;;;;0.22;0.22;;;;;;;11.43;84.68;95717.91;5008364;28;20561;-73
2023/10/31 04:37:35;;;;;;;0.20;0.20;;;;;;;11.46;84.82;95709.41;5008895;28;20133;-74
2023/10/31 04:40:04;;;;;;;0.20;0.20;;;;;;;11.46;84.13;95704.06;5009898;28;20140;-74
2023/10/31 04:42:34;;;;;;;0.28;0.28;;;;;;;11.50;83.97;95711.38;5008139;28;20074;-73
2023/10/31 04:45:02;;;;;;;0.20;0.20;;;;;;;11.51;83.32;95709.50;5010563;28;20047;-74
2023/10/31 04:47:30;;;;;;;0.20;0.20;;;;;;;11.48;82.98;95721.47;5007445;28;20137;-73
2023/10/31 04:49:58;;;;;;;0.20;0.20;;;;;;;11.49;83.12;95708.94;5007069;28;20073;-74
2023/10/31 04:52:26;;;;;;;0.20;0.20;;;;;;;11.48;82.29;95716.13;5006754;28;20037;-74
2023/10/31 04:54:54;;;;;;;0.20;0.20;;;;;;;11.50;82.19;95710.56;5008058;28;20072;-74
2023/10/31 04:57:22;;;;;;;0.20;0.20;;;;;;;11.47;82.42;95714.50;5008917;28;20038;-74
2023/10/31 04:59:52;;;;;;;0.20;0.20;;;;;;;11.48;81.80;95715.31;5011678;28;20104;-74
2023/10/31 05:02:22;;;;;;;0.20;0.20;;;;;;;11.47;81.40;95716.38;5011961;28;20584;-74
2023/10/31 05:04:51;;;;;;;0.20;0.20;;;;;;;11.43;81.17;95734.75;5012130;28;20048;-74
2023/10/31 05:07:19;;;;;;;0.20;0.20;;;;;;;11.43;80.78;95728.59;5011533;28;20096;-73
2023/10/31 05:09:46;;;;;;;0.28;0.28;;;;;;;11.43;81.38;95724.06;5008096;28;20042;-73
2023/10/31 05:12:14;;;;;;;0.15;0.15;;;;;;;11.42;80.58;95727.78;4992568;28;20125;-74
2023/10/31 05:14:42;;;;;;;0.30;0.30;;;;;;;11.40;80.66;95733.41;5008508;28;20069;-74
2023/10/31 05:17:11;;;;;;;0.20;0.20;;;;;;;11.39;80.87;95742.47;5011550;28;20068;-73
2023/10/31 05:19:38;;;;;;;0.20;0.20;;;;;;;11.37;81.13;95743.75;5011513;28;20047;-74
2023/10/31 05:22:06;;;;;;;0.20;0.20;;;;;;;11.35;80.70;95749.34;5013568;28;20125;-72
2023/10/31 05:24:34;;;;;;;0.25;0.25;;;;;;;11.39;80.62;95755.81;5013226;28;20124;-73
2023/10/31 05:27:01;;;;;;;0.20;0.20;;;;;;;11.35;80.70;95760.03;5011258;28;20132;-73
2023/10/31 05:29:30;;;;;;;0.15;0.15;;;;;;;11.31;80.64;95758.09;5009471;28;20058;-73
2023/10/31 05:31:57;;;;;;;0.17;0.17;;;;;;;11.29;80.20;95758.34;5015443;28;20042;-72
2023/10/31 05:34:26;;;;;;;0.20;0.20;;;;;;;11.22;79.87;95746.19;5010899;28;20117;-73
2023/10/31 05:36:54;;;;;;;0.20;0.20;;;;;;;11.21;80.12;95748.06;5014268;28;20052;-72
2023/10/31 05:39:22;;;;;;;0.20;0.20;;;;;;;11.18;79.83;95743.22;5015933;28;20065;-73
2023/10/31 05:41:49;;;;;;;0.20;0.20;;;;;;;11.15;80.13;95741.03;5022172;28;20052;-73
2023/10/31 05:44:17;;;;;;;0.30;0.30;;;;;;;11.06;80.81;95753.16;5011365;28;20091;-73
2023/10/31 05:46:45;;;;;;;0.20;0.20;;;;;;;11.06;80.50;95755.84;5010731;28;20056;-75
2023/10/31 05:49:12;;;;;;;0.13;0.13;;;;;;;11.07;80.01;95762.00;5012635;28;20129;-73
2023/10/31 05:51:41;;;;;;;0.08;0.08;;;;;;;11.05;79.93;95772.91;5011222;28;20041;-73
2023/10/31 05:54:09;;;;;;;0.30;0.30;;;;;;;11.00;79.91;95770.94;5014167;28;20126;-74
2023/10/31 05:56:39;;;;;;;0.20;0.20;;;;;;;10.99;79.77;95782.72;5013268;28;20401;-74
2023/10/31 05:59:06;;;;;;;0.20;0.20;;;;;;;10.98;79.16;95788.28;5010566;28;20041;-74
2023/10/31 06:01:34;;;;;;;0.22;0.22;;;;;;;10.97;79.64;95794.66;5012336;28;20089;-74
2023/10/31 06:04:02;;;;;;;0.20;0.20;;;;;;;10.96;79.48;95804.53;5009707;28;20566;-75
2023/10/31 06:06:30;;;;;;;0.20;0.20;;;;;;;10.97;79.67;95813.34;5008420;28;20588;-74
2023/10/31 06:08:59;;;;;;;0.20;0.20;;;;;;;10.95;79.06;95804.78;5010975;28;20038;-74
2023/10/31 06:11:27;;;;;;;0.28;0.28;;;;;;;10.89;79.29;95822.56;5010840;28;20394;-75
2023/10/31 06:13:55;;;;;;;0.20;0.20;;;;;;;10.90;79.37;95813.50;5002932;28;20042;-75
2023/10/31 06:16:23;;;;;;;0.20;0.20;;;;;;;10.92;79.22;95819.41;5011271;28;20100;-74
2023/10/31 06:18:50;;;;;;;0.20;0.20;;;;;;;10.92;79.46;95827.41;5012857;28;20041;-74
2023/10/31 06:21:18;;;;;;;0.30;0.30;;;;;;;10.90;79.64;95826.84;5009446;28;20049;-74
2023/10/31 06:23:46;;;;;;;0.22;0.22;;;;;;;10.88;78.99;95833.47;5009333;28;20052;-74
2023/10/31 06:26:15;;;;;;;0.30;0.30;;;;;;;10.83;79.29;95844.88;5016186;28;20088;-74
2023/10/31 06:28:43;;;;;;;0.28;0.28;;;;;;;10.86;79.45;95846.25;5011071;28;20104;-73
2023/10/31 06:31:29;;;;;;;0.25;0.25;;;;;;;10.84;79.30;95848.34;5010721;28;20041;-73
2023/10/31 06:33:56;;;;;;;0.25;0.25;;;;;;;10.86;79.05;95848.91;5011554;28;20457;-72
2023/10/31 06:36:24;;;;;;;0.35;0.20;;;;;;;10.84;78.93;95845.69;5010421;28;20145;-72
2023/10/31 06:38:51;;;;;;;0.10;0.10;;;;;;;10.79;78.56;95846.41;5008933;28;20046;-73
2023/10/31 06:41:21;;;;;;;0.25;0.25;;;;;;;10.75;78.71;95863.13;5008766;28;20049;-74
2023/10/31 06:43:48;;;;;;;0.30;0.30;;;;;;;10.76;78.74;95867.41;5014895;28;20053;-75
2023/10/31 06:46:16;;;;;;;0.40;0.22;;;;;;;10.75;78.72;95876.47;5008025;28;20058;-74
2023/10/31 06:48:44;;;;;;;0.10;0.10;;;;;;;10.74;78.68;95878.31;5010971;28;20045;-73
2023/10/31 06:51:14;;;;;;;0.20;0.20;;;;;;;10.80;78.48;95889.88;5008619;28;20069;-73
2023/10/31 06:53:42;;;;;;;0.30;0.30;;;;;;;10.77;78.02;95895.72;5009055;28;20046;-73
2023/10/31 06:56:09;;;;;;;0.40;0.40;;;;;;;10.75;77.92;95901.28;5008685;28;20410;-74
2023/10/31 06:58:38;;;;;;;0.20;0.20;;;;;;;10.77;77.29;95909.06;5010483;28;20073;-76
2023/10/31 07:01:06;;;;;;;0.13;0.13;;;;;;;10.76;77.48;95918.94;5009851;28;20046;-74
2023/10/31 07:03:34;;;;;;;0.20;0.20;;;;;;;10.75;77.14;95913.81;5011193;28;20042;-73
2023/10/31 07:06:01;;;;;;;0.20;0.20;;;;;;;10.75;76.75;95929.84;5014557;28;20128;-73
2023/10/31 07:08:30;;;;;;;0.20;0.20;;;;;;;10.75;76.95;95937.84;5010486;28;20073;-74
2023/10/31 07:10:57;;;;;;;0.20;0.20;;;;;;;10.61;76.94;95922.09;5011560;28;20045;-74
2023/10/31 07:13:28;;;;;;;0.20;0.20;;;;;;;10.66;77.43;95930.22;5008639;28;20084;-73
2023/10/31 07:15:57;;;;;;;0.20;0.20;;;;;;;10.69;77.25;95933.47;5008921;28;20042;-74
2023/10/31 07:18:25;;;;;;;0.15;0.15;;;;;;;10.65;77.00;95941.13;5007544;28;20041;-74
2023/10/31 07:20:54;;;;;;;0.10;0.10;;;;;;;10.70;77.29;95932.38;5009874;28;20048;-74
2023/10/31 07:23:22;;;;;;;0.20;0.20;;;;;;;10.64;77.30;95934.97;5008275;28;20074;-75
2023/10/31 07:25:50;;;;;;;0.30;0.30;;;;;;;10.64;77.59;95945.63;5008084;28;20085;-74
2023/10/31 07:28:18;;;;;;;0.20;0.20;;;;;;;10.59;77.22;95958.06;5014967;28;20049;-74
2023/10/31 07:30:46;;;;;;;0.22;0.22;;;;;;;10.61;77.36;95961.28;5010415;28;20091;-73
2023/10/31 07:33:15;;;;;;;0.32;0.32;;;;;;;10.57;76.90;95963.66;5008968;28;20042;-73
2023/10/31 07:35:43;;;;;;;0.40;0.40;;;;;;;10.54;77.11;95965.97;5010464;28;20049;-73
2023/10/31 07:38:11;;;;;;;0.28;0.28;;;;;;;10.59;77.10;95976.72;5013891;28;20106;-73
2023/10/31 07:40:38;;;;;;;0.22;0.22;;;;;;;10.55;77.26;95979.06;5016041;28;20045;-74
2023/10/31 07:43:06;;;;;;;0.20;0.20;;;;;;;10.54;76.53;95982.78;5011158;28;20470;-74
2023/10/31 07:45:34;;;;;;;0.20;0.20;;;;;;;10.56;76.86;95988.69;5010746;28;20092;-75
2023/10/31 07:48:02;;;;;;;0.20;0.20;;;;;;;10.58;76.39;95994.63;5019240;28;20045;-75
2023/10/31 07:50:31;;;;;;;0.30;0.30;;;;;;;10.60;76.59;95994.34;5013722;28;20057;-73
2023/10/31 07:52:59;;;;;;;0.20;0.20;;;;;;;10.60;76.55;95986.34;5002355;28;20099;-73
2023/10/31 07:55:27;;;;;;;0.20;0.20;;;;;;;10.64;76.13;96000.84;5007695;28;20050;-73
2023/10/31 07:57:55;;;;;;;0.20;0.20;;;;;;;10.64;75.54;95985.66;5008985;28;20055;-75
2023/10/31 08:00:22;;;;;;;0.20;0.20;;;;;;;10.66;75.67;95991.59;5008291;28;20038;-72
2023/10/31 08:08:50;;;;;;;0.20;0.20;;;;;;;10.69;75.24;96006.31;5105184;23;20071;-72
2023/10/31 08:11:18;;;;;;;0.40;0.30;;;;;;;10.80;74.96;96007.31;4882590;29;20127;-71
2023/10/31 08:13:46;;;;;;;0.30;0.30;;;;;;;10.83;74.46;96013.00;4886034;29;20077;-71
2023/10/31 08:16:18;;;;;;;0.20;0.20;;;;;;;10.81;74.31;96020.44;4886528;29;20108;-70
2023/10/31 08:18:46;;;;;;;0.10;0.10;;;;;;;10.78;75.01;96004.09;4883366;29;20132;-72
2023/10/31 08:21:14;;;;;;;0.20;0.20;;;;;;;10.82;74.55;96013.22;4882527;29;20152;-71
2023/10/31 08:23:44;;;;;;;0.13;0.13;;;;;;;10.84;74.73;96011.16;4886553;29;20036;-70
2023/10/31 08:26:14;;;;;;;0.20;0.20;;;;;;;10.86;74.85;96015.22;4883691;29;20036;-71
2023/10/31 08:28:42;;;;;;;0.20;0.20;;;;;;;10.91;74.65;96019.81;4884475;29;20053;-69
2023/10/31 08:31:10;;;;;;;0.20;0.20;;;;;;;10.92;74.27;96024.13;4886338;29;20071;-71
2023/10/31 08:33:39;;;;;;;0.30;0.30;;;;;;;10.92;74.35;96042.81;4885837;29;20109;-70
2023/10/31 08:36:08;;;;;;;0.20;0.20;;;;;;;10.96;74.38;96043.97;4888326;29;20100;-71
2023/10/31 08:38:36;;;;;;;0.30;0.30;;;;;;;10.95;73.63;96035.16;4887460;29;20052;-70
2023/10/31 08:41:05;;;;;;;0.20;0.20;;;;;;;10.94;73.43;96035.38;4886397;29;20460;-71
2023/10/31 08:43:35;;;;;;;0.40;0.40;;;;;;;10.90;73.71;96045.72;4885597;29;20405;-72
2023/10/31 08:46:03;;;;;;;0.20;0.20;;;;;;;10.97;73.33;96033.06;4884590;29;20140;-70
2023/10/31 08:48:31;;;;;;;0.20;0.20;;;;;;;10.97;73.31;96021.56;4885106;29;20100;-70
2023/10/31 08:50:59;;;;;;;0.30;0.30;;;;;;;10.94;73.48;96035.38;4886707;29;20108;-70
2023/10/31 08:53:27;;;;;;;0.17;0.17;;;;;;;11.02;73.42;96037.69;4888567;29;20156;-70
2023/10/31 08:55:56;;;;;;;0.30;0.30;;;;;;;10.97;73.57;96048.25;4885784;29;20470;-70
2023/10/31 08:58:24;;;;;;;0.30;0.30;;;;;;;10.91;73.93;96043.84;4889253;29;20425;-70
2023/10/31 09:00:53;;;;;;;0.30;0.30;;;;;;;10.82;75.14;96056.75;4887841;29;20579;-70
2023/10/31 09:03:20;;;;;;;0.20;0.20;;;;;;;10.69;76.50;96049.00;4883409;29;20040;-70
2023/10/31 09:05:49;;;;;;;0.20;0.20;;;;;;;10.62;77.01;96066.97;4888801;29;20044;-70
2023/10/31 09:08:16;;;;;;;0.22;0.22;;;;;;;10.62;76.79;96053.63;4882490;29;20060;-72
2023/10/31 09:10:46;;;;;;;0.20;0.20;;;;;;;10.69;76.61;96057.00;4888831;29;20046;-71
2023/10/31 09:13:14;;;;;;;0.20;0.20;;;;;;;10.71;76.78;96059.44;4884485;29;20532;-71
2023/10/31 09:15:42;;;;;;;0.17;0.17;;;;;;;10.70;76.86;96063.94;4888379;29;20048;-71
2023/10/31 09:18:11;;;;;;;0.20;0.20;;;;;;;10.71;77.16;96065.56;4889157;29;20564;-71
2023/10/31 09:20:39;;;;;;;0.30;0.30;;;;;;;10.72;77.41;96061.06;4888647;29;20047;-71
2023/10/31 09:23:06;;;;;;;0.20;0.20;;;;;;;10.63;77.83;96057.94;4888384;29;20128;-71
2023/10/31 09:25:34;;;;;;;0.20;0.20;;;;;;;10.56;77.61;96051.91;4888646;29;20045;-71
2023/10/31 09:28:02;;;;;;;0.20;0.20;;;;;;;10.59;78.22;96059.44;4887289;29;20105;-71
2023/10/31 09:30:29;;;;;;;0.20;0.20;;;;;;;10.53;77.31;96047.84;4883578;29;20083;-71
2023/10/31 09:32:57;;;;;;;0.20;0.20;;;;;;;10.52;77.57;96045.41;4887564;29;20427;-71
2023/10/31 09:35:27;;;;;;;0.30;0.30;;;;;;;10.58;77.19;96037.31;4886422;29;20532;-71
2023/10/31 09:37:54;;;;;;;0.40;0.40;;;;;;;10.61;77.05;96044.00;4887503;29;20056;-71
2023/10/31 09:40:22;;;;;;;0.20;0.20;;;;;;;10.70;77.15;96049.78;4887733;29;20052;-71
2023/10/31 09:42:51;;;;;;;0.25;0.25;;;;;;;10.71;76.15;96051.41;4886720;29;20053;-70
2023/10/31 09:45:18;;;;;;;0.10;0.10;;;;;;;10.67;75.83;96056.44;4887603;29;20045;-70
2023/10/31 09:47:47;;;;;;;0.20;0.20;;;;;;;10.65;75.62;96053.19;4887949;29;20489;-70
2023/10/31 09:50:15;;;;;;;0.30;0.30;;;;;;;10.73;75.55;96047.47;4885637;29;20108;-70
2023/10/31 09:52:45;;;;;;;0.22;0.22;;;;;;;10.85;74.99;96047.47;4887657;29;20045;-70
2023/10/31 09:55:13;;;;;;;0.28;0.28;;;;;;;10.92;74.84;96048.16;4886826;29;20044;-72
2023/10/31 09:57:40;;;;;;;0.30;0.30;;;;;;;11.01;74.46;96047.53;4883709;29;20049;-71
2023/10/31 10:00:10;;;;;;;0.20;0.20;;;;;;;11.07;73.91;96042.31;4884075;29;20052;-71
2023/10/31 10:02:38;;;;;;;0.10;0.10;;;;;;;11.10;73.95;96026.66;4887853;29;20045;-71
2023/10/31 10:05:08;;;;;;;0.90;0.90;;;;;;;11.11;73.74;96032.81;4886818;29;20797;-71
2023/10/31 10:07:42;;;;;;;0.20;0.20;;;;;;;11.20;73.90;96039.41;4886747;29;20148;-71
2023/10/31 10:10:12;;;;;;;0.15;0.13;;;;;;;11.28;73.58;96044.34;4884006;29;20139;-70
2023/10/31 10:12:43;;;;;;;0.20;0.20;;;;;;;11.35;73.20;96040.50;4883294;29;20051;-71
2023/10/31 10:15:11;;;;;;;0.20;0.20;;;;;;;11.49;72.20;96042.88;4884673;29;20056;-71
2023/10/31 10:17:40;;;;;;;0.15;0.15;;;;;;;11.50;72.30;96052.53;4886040;29;20053;-71
2023/10/31 10:20:09;;;;;;;0.22;0.22;;;;;;;11.53;72.09;96022.63;4887002;29;20056;-70
2023/10/31 10:22:38;;;;;;;0.20;0.20;;;;;;;11.54;72.18;96046.44;4884047;29;20058;-71
2023/10/31 10:25:07;;;;;;;0.20;0.20;;;;;;;11.53;72.48;96042.16;4885946;29;20114;-71
2023/10/31 10:27:36;;;;;;;0.30;0.30;;;;;;;11.43;72.99;96033.94;4885720;29;20128;-71
2023/10/31 10:30:05;;;;;;;0.20;0.20;;;;;;;11.39;73.23;96047.00;4887014;29;20059;-71
2023/10/31 10:32:33;;;;;;;0.20;0.20;;;;;;;11.43;73.09;96044.63;4884176;29;20124;-71
2023/10/31 10:35:01;;;;;;;0.30;0.30;;;;;;;11.41;72.33;96054.78;4885417;29;20059;-71
2023/10/31 10:37:30;;;;;;;0.30;0.30;;;;;;;11.33;72.78;96057.78;4884541;29;20052;-71
2023/10/31 10:39:59;;;;;;;0.20;0.20;;;;;;;11.32;72.93;96061.50;4885826;29;20136;-71
2023/10/31 10:42:33;;;;;;;0.20;0.20;;;;;;;11.37;72.44;96059.78;4884517;29;20113;-71
2023/10/31 10:45:05;;;;;;;0.20;0.20;;;;;;;11.39;71.63;96060.34;4884072;29;20057;-71
2023/10/31 10:47:33;;;;;;;0.38;0.38;;;;;;;11.34;71.82;96072.78;4883591;29;20072;-71
2023/10/31 10:50:02;;;;;;;0.32;0.32;;;;;;;11.32;71.77;96067.66;4885251;29;20052;-71
2023/10/31 10:52:36;;;;;;;0.25;0.25;;;;;;;11.35;71.89;96067.19;4883248;29;20065;-71
2023/10/31 10:55:07;;;;;;;0.20;0.20;;;;;;;11.50;71.76;96079.25;4885039;29;20053;-71
2023/10/31 10:57:39;;;;;;;0.20;0.20;;;;;;;11.57;71.31;96088.75;4881681;29;20063;-71
2023/10/31 11:00:12;;;;;;;0.20;0.20;;;;;;;11.67;71.10;96080.09;4885912;29;20060;-71
2023/10/31 11:02:42;;;;;;;0.25;0.25;;;;;;;11.83;70.35;96075.91;4883686;29;20089;-71
2023/10/31 11:05:10;;;;;;;0.20;0.20;;;;;;;11.79;70.04;96062.19;4884970;29;20052;-71
2023/10/31 11:07:39;;;;;;;0.20;0.20;;;;;;;11.59;70.36;96070.63;4885547;29;20400;-71
2023/10/31 11:10:09;;;;;;;0.20;0.20;;;;;;;11.60;70.60;96080.25;4884630;29;20125;-71
2023/10/31 11:12:38;;;;;;;0.30;0.20;;;;;;;11.62;70.56;96083.50;4883798;29;20064;-71
2023/10/31 11:15:07;;;;;;;0.30;0.30;;;;;;;11.65;70.59;96091.03;4884519;29;20045;-71
2023/10/31 11:17:38;;;;;;;0.20;0.20;;;;;;;11.64;71.16;96096.59;4885383;29;20072;-71
2023/10/31 11:20:08;;;;;;;0.20;0.20;;;;;;;11.67;71.10;96114.84;4886181;29;20441;-71
2023/10/31 11:22:40;;;;;;;0.55;0.30;;;;;;;11.62;71.16;96117.44;4885971;29;20724;-72
2023/10/31 11:25:09;;;;;;;0.20;0.20;;;;;;;11.54;71.45;96117.78;4888141;29;20052;-73
2023/10/31 11:27:49;;;;;;;0.52;0.30;;;;;;;11.49;71.96;96112.34;4885975;29;20516;-71
2023/10/31 11:30:27;;;;;;;0.30;0.30;;;;;;;11.56;71.77;96123.72;4885742;29;20079;-71
2023/10/31 11:32:59;;;;;;;0.20;0.20;;;;;;;11.55;71.50;96130.91;4884772;29;20541;-71
2023/10/31 11:35:30;;;;;;;0.17;0.17;;;;;;;11.50;71.73;96132.69;4885890;29;20167;-71
2023/10/31 11:38:02;;;;;;;0.20;0.20;;;;;;;11.51;71.36;96118.28;4881158;29;20410;-71
2023/10/31 11:40:30;;;;;;;;;;;;;;;11.52;71.28;96120.72;4884161;29;20055;-71
2023/10/31 11:43:00;;;;;;;0.25;0.25;;;;;;;11.60;71.25;96127.53;4885115;29;19924;-71
2023/10/31 11:45:28;;;;;;;0.10;0.10;;;;;;;11.61;71.07;96135.31;4884822;29;20510;-71